Time;durP1;ratioP1;P1;durP2;ratioP2;P2;SDS_P1;SDS_P2;PMS_P1;PMS_P2;Temp;Humidity;BMP_temperature;BMP_pressure;BME280_temperature;BME280_humidity;BME280_pressure;Samples;Min_cycle;Max_cycle;Signal;HPM_P1;HPM_P2
2021/08/22 00:02:16;;;;;;;3.03;2.72;;;;;;;29.77;60.73;100826.84;5079737;27;70336;-41
2021/08/22 00:04:47;;;;;;;3.38;2.97;;;;;;;29.82;61.05;100835.16;5099191;27;66201;-40
2021/08/22 00:07:22;;;;;;;3.13;2.85;;;;;;;29.84;62.02;100833.91;5077009;27;69499;-43
2021/08/22 00:09:53;;;;;;;3.63;3.20;;;;;;;29.86;62.84;100830.13;5080944;27;66091;-40
2021/08/22 00:12:24;;;;;;;4.07;3.63;;;;;;;29.96;63.06;100838.63;5098438;27;69432;-40
2021/08/22 00:14:54;;;;;;;3.80;3.58;;;;;;;30.00;63.28;100837.97;5098687;27;66403;-41
2021/08/22 00:17:25;;;;;;;3.80;3.40;;;;;;;30.03;63.89;100831.28;5032277;27;70968;-39
2021/08/22 00:19:56;;;;;;;7.07;3.85;;;;;;;30.07;64.37;100832.53;5096071;27;66487;-40
2021/08/22 00:22:26;;;;;;;3.75;3.28;;;;;;;30.03;64.98;100815.91;5097605;27;70145;-42
2021/08/22 00:24:57;;;;;;;6.25;4.43;;;;;;;30.23;65.20;100829.38;5060760;27;66218;-43
2021/08/22 00:27:29;;;;;;;4.95;3.92;;;;;;;30.24;66.32;100832.91;5078295;27;69885;-41
2021/08/22 00:29:59;;;;;;;5.55;4.70;;;;;;;30.26;65.96;100838.94;5074852;27;66230;-40
2021/08/22 00:32:34;;;;;;;10.07;4.20;;;;;;;30.28;66.06;100840.38;5103900;27;70062;-41
2021/08/22 00:35:05;;;;;;;12.88;5.07;;;;;;;30.30;67.05;100837.44;5076229;27;66205;-42
2021/08/22 00:37:36;;;;;;;7.22;5.28;;;;;;;30.32;67.24;100848.06;5104299;27;69545;-42
2021/08/22 00:40:07;;;;;;;6.07;4.80;;;;;;;30.33;67.67;100838.88;5099525;27;65835;-41
2021/08/22 00:42:38;;;;;;;5.25;4.82;;;;;;;30.33;67.83;100847.00;5097982;27;70012;-41
2021/08/22 00:45:09;;;;;;;5.25;4.75;;;;;;;30.34;67.21;100848.63;5106331;27;65920;-41
2021/08/22 00:47:43;;;;;;;5.40;4.53;;;;;;;30.38;67.50;100849.88;5106859;27;69126;-42
2021/08/22 00:50:19;;;;;;;5.18;4.53;;;;;;;30.36;68.30;100852.78;5066243;27;66068;-42
2021/08/22 00:52:50;;;;;;;7.07;4.60;;;;;;;30.34;67.67;100840.53;5104298;27;70250;-42
2021/08/22 00:55:22;;;;;;;4.65;4.25;;;;;;;30.41;67.96;100854.84;5076137;27;66608;-41
2021/08/22 00:57:52;;;;;;;4.95;3.85;;;;;;;30.41;67.70;100854.84;5081700;27;69347;-41
2021/08/22 01:00:24;;;;;;;7.03;4.20;;;;;;;30.39;68.75;100851.53;5098884;27;66179;-41
2021/08/22 01:03:49;;;;;;;11.07;3.80;;;;;;;30.33;68.31;100857.81;5084300;27;70342;-40
2021/08/22 01:06:56;;;;;;;6.18;3.53;;;;;;;30.34;68.58;100864.88;5098511;27;64155;-42
2021/08/22 01:09:38;;;;;;;4.28;3.88;;;;;;;30.41;68.31;100854.84;5062018;27;68210;-42
2021/08/22 01:12:15;;;;;;;4.00;3.70;;;;;;;30.50;67.54;100853.53;5064325;27;66218;-40
2021/08/22 01:14:52;;;;;;;3.47;3.00;;;;;;;30.41;67.69;100844.03;5098322;27;70283;-40
2021/08/22 01:17:24;;;;;;;3.35;3.15;;;;;;;30.50;68.09;100848.94;5094299;27;66153;-40
2021/08/22 01:20:00;;;;;;;3.60;3.30;;;;;;;30.53;67.62;100852.28;5080254;27;69909;-40
2021/08/22 01:22:33;;;;;;;4.15;3.83;;;;;;;30.55;67.21;100853.72;5098935;27;65815;-40
2021/08/22 01:25:05;;;;;;;3.08;2.88;;;;;;;30.37;68.07;100826.56;5097243;27;70303;-40
2021/08/22 01:27:38;;;;;;;3.35;3.08;;;;;;;30.58;67.75;100855.97;5052256;27;66480;-40
2021/08/22 01:30:13;;;;;;;5.05;3.63;;;;;;;30.56;67.64;100852.66;5096195;27;69226;-40
2021/08/22 01:32:46;;;;;;;4.18;3.60;;;;;;;30.63;67.27;100848.03;5094400;27;65523;-40
2021/08/22 01:35:20;;;;;;;4.40;3.25;;;;;;;30.61;67.54;100841.19;5085663;27;70211;-41
2021/08/22 01:37:53;;;;;;;3.55;3.25;;;;;;;30.65;67.12;100856.78;5073529;27;65397;-39
2021/08/22 01:40:25;;;;;;;3.22;3.03;;;;;;;30.68;67.37;100852.81;5098280;27;70074;-42
2021/08/22 01:42:56;;;;;;;3.10;2.90;;;;;;;30.69;67.06;100852.56;5094715;27;65504;-40
2021/08/22 01:45:29;;;;;;;3.85;3.50;;;;;;;30.64;67.77;100829.91;5045732;27;68380;-40
2021/08/22 01:48:01;;;;;;;3.55;3.20;;;;;;;30.77;67.24;100842.53;5098186;27;65752;-40
2021/08/22 01:50:32;;;;;;;3.55;3.25;;;;;;;30.74;67.32;100841.09;5092538;27;70429;-40
2021/08/22 01:53:14;;;;;;;4.47;3.10;;;;;;;30.80;67.45;100851.06;5099536;27;66289;-40
2021/08/22 01:55:53;;;;;;;3.83;3.40;;;;;;;30.85;67.46;100855.81;5092098;27;70616;-41
2021/08/22 01:58:27;;;;;;;6.40;2.97;;;;;;;30.82;67.29;100856.28;5061501;27;66644;-40
2021/08/22 02:00:58;;;;;;;3.55;2.72;;;;;;;30.88;67.02;100874.34;5059190;27;70146;-40
2021/08/22 02:03:44;;;;;;;3.03;2.70;;;;;;;30.85;67.52;100878.31;5099138;27;66033;-40
2021/08/22 02:06:35;;;;;;;3.05;2.85;;;;;;;30.86;67.78;100889.97;5079700;27;70095;-41
2021/08/22 02:09:10;;;;;;;2.90;2.70;;;;;;;30.94;67.09;100892.41;5072836;27;66443;-41
2021/08/22 02:11:44;;;;;;;2.58;2.38;;;;;;;30.99;67.45;100889.06;5095403;27;69435;-40
2021/08/22 02:14:17;;;;;;;3.72;2.97;;;;;;;31.02;66.47;100899.44;5076379;27;65273;-40
2021/08/22 02:16:52;;;;;;;3.25;2.95;;;;;;;31.03;66.61;100895.69;5070162;27;69718;-40
2021/08/22 02:19:25;;;;;;;7.18;3.30;;;;;;;30.84;65.52;100864.97;5097069;27;65986;-40
2021/08/22 02:21:57;;;;;;;2.38;2.17;;;;;;;31.09;66.12;100906.47;5095803;27;69588;-39
2021/08/22 02:24:28;;;;;;;6.40;2.63;;;;;;;31.08;65.77;100895.84;5091408;27;67111;-40
2021/08/22 02:26:59;;;;;;;3.00;2.60;;;;;;;31.12;65.69;100889.78;5064050;27;69719;-46
2021/08/22 02:29:30;;;;;;;3.50;3.20;;;;;;;31.16;65.70;100890.16;5095474;27;67096;-41
2021/08/22 02:32:03;;;;;;;3.13;2.90;;;;;;;31.14;65.38;100882.22;5059915;27;69785;-40
2021/08/22 02:34:34;;;;;;;2.85;2.65;;;;;;;31.18;65.18;100885.34;5091214;27;66359;-40
2021/08/22 02:37:05;;;;;;;3.70;2.45;;;;;;;31.20;65.87;100891.34;5055027;27;69074;-41
2021/08/22 02:39:36;;;;;;;3.85;2.45;;;;;;;31.26;65.72;100889.63;5094447;27;65453;-41
2021/08/22 02:42:10;;;;;;;7.80;2.13;;;;;;;31.29;65.56;100883.78;5093444;27;70017;-40
2021/08/22 02:44:41;;;;;;;2.00;1.70;;;;;;;31.32;65.64;100880.63;5078992;27;65361;-42
2021/08/22 02:47:25;;;;;;;2.78;1.90;;;;;;;31.38;65.55;100883.28;5074946;27;69639;-41
2021/08/22 02:50:02;;;;;;;4.80;1.85;;;;;;;31.43;65.21;100885.34;5097572;27;65361;-41
2021/08/22 02:52:33;;;;;;;6.03;1.70;;;;;;;31.45;65.43;100885.94;5059217;27;70173;-40
2021/08/22 02:55:04;;;;;;;1.77;1.60;;;;;;;31.51;65.21;100881.50;5097477;27;65012;-43
2021/08/22 02:57:37;;;;;;;4.25;1.80;;;;;;;31.53;64.96;100874.78;5092765;27;70174;-40
2021/08/22 03:00:09;;;;;;;3.92;1.60;;;;;;;31.57;64.31;100867.88;5074068;27;65729;-40
2021/08/22 03:02:59;;;;;;;4.28;1.85;;;;;;;31.65;63.41;100871.34;5059860;27;69978;-40
2021/08/22 03:05:31;;;;;;;2.10;1.90;;;;;;;31.72;63.66;100869.38;5041429;27;65534;-40
2021/08/22 03:08:03;;;;;;;2.72;1.92;;;;;;;31.70;63.72;100875.03;5075473;27;69999;-40
2021/08/22 03:10:34;;;;;;;;;;;;;;;31.45;63.51;100880.50;5070124;27;66137;-41
2021/08/22 03:13:05;;;;;;;2.20;1.70;;;;;;;31.69;63.14;100877.97;5095034;27;70329;-42
2021/08/22 03:15:36;;;;;;;1.97;1.60;;;;;;;31.69;62.97;100880.69;5042249;27;67544;-40
2021/08/22 03:18:07;;;;;;;1.60;1.50;;;;;;;31.72;62.99;100877.53;5062041;27;69493;-40
2021/08/22 03:20:45;;;;;;;2.90;1.48;;;;;;;31.54;63.07;100843.94;5095888;27;66483;-41
2021/08/22 03:23:16;;;;;;;2.50;1.20;;;;;;;31.69;61.75;100878.78;5094708;27;69956;-41
2021/08/22 03:25:47;;;;;;;4.32;1.02;;;;;;;31.63;61.24;100873.47;5094410;27;66366;-40
2021/08/22 03:28:20;;;;;;;2.05;1.20;;;;;;;31.53;60.02;100874.78;5097180;27;70176;-39
2021/08/22 03:30:51;;;;;;;4.13;1.30;;;;;;;31.47;59.57;100864.84;5096828;27;65340;-39
2021/08/22 03:33:51;;;;;;;5.65;2.10;;;;;;;31.35;59.09;100866.63;5096982;27;69939;-40
2021/08/22 03:36:22;;;;;;;11.85;3.47;;;;;;;31.38;60.73;100866.22;5092558;27;65992;-40
2021/08/22 03:38:53;;;;;;;4.97;4.57;;;;;;;31.44;62.04;100865.31;5099091;27;70586;-40
2021/08/22 03:41:24;;;;;;;17.38;5.20;;;;;;;31.49;62.56;100862.75;5090561;27;65451;-40
2021/08/22 03:43:55;;;;;;;11.90;5.50;;;;;;;31.51;62.69;100868.78;5077753;27;70308;-41
2021/08/22 03:46:26;;;;;;;7.90;6.68;;;;;;;31.59;62.43;100865.78;5092468;27;66105;-41
2021/08/22 03:48:57;;;;;;;16.30;7.10;;;;;;;31.60;62.91;100853.88;5077336;27;69210;-42
2021/08/22 03:51:28;;;;;;;8.02;6.90;;;;;;;31.67;63.19;100859.22;5078273;27;65673;-40
2021/08/22 03:53:59;;;;;;;11.73;7.47;;;;;;;31.68;62.72;100854.59;5077830;27;70134;-39
2021/08/22 03:56:30;;;;;;;8.93;6.55;;;;;;;31.61;62.95;100822.16;5100698;27;65800;-39
2021/08/22 03:59:06;;;;;;;12.82;7.45;;;;;;;31.69;63.11;100846.25;5096373;27;69689;-39
2021/08/22 04:01:37;;;;;;;13.88;7.60;;;;;;;31.76;63.75;100840.75;5095138;27;66194;-40
2021/08/22 04:04:19;;;;;;;13.48;8.00;;;;;;;31.79;63.16;100849.28;5082873;27;69710;-40
2021/08/22 04:06:51;;;;;;;10.75;7.43;;;;;;;31.84;63.32;100845.84;5101381;27;66350;-40
2021/08/22 04:09:24;;;;;;;14.63;7.65;;;;;;;31.82;63.47;100839.84;5091669;27;68596;-40
2021/08/22 04:11:57;;;;;;;10.05;7.35;;;;;;;31.82;63.17;100824.41;5094197;27;66116;-40
2021/08/22 04:14:27;;;;;;;12.02;7.60;;;;;;;31.88;63.48;100838.94;5096196;27;69188;-40
2021/08/22 04:16:57;;;;;;;7.70;7.00;;;;;;;31.90;63.08;100825.13;5101520;27;65932;-40
2021/08/22 04:19:28;;;;;;;13.20;6.30;;;;;;;31.80;63.32;100812.13;5106041;27;69085;-40
2021/08/22 04:21:59;;;;;;;8.60;7.15;;;;;;;31.93;63.15;100825.56;5098733;27;65408;-40
2021/08/22 04:24:29;;;;;;;10.63;7.13;;;;;;;31.91;62.87;100805.97;5101400;27;70977;-40
2021/08/22 04:27:00;;;;;;;6.65;6.05;;;;;;;31.97;62.92;100820.50;5089705;27;65126;-40
2021/08/22 04:29:32;;;;;;;6.82;5.88;;;;;;;32.01;62.80;100810.81;5105302;27;70278;-40
2021/08/22 04:32:04;;;;;;;6.07;5.50;;;;;;;32.00;62.78;100810.00;5096018;27;66758;-40
2021/08/22 04:34:34;;;;;;;11.02;5.82;;;;;;;32.02;63.06;100810.59;5099044;27;69296;-40
2021/08/22 04:37:05;;;;;;;7.40;5.38;;;;;;;32.02;62.90;100810.59;5100630;27;66122;-40
2021/08/22 04:39:35;;;;;;;6.57;5.65;;;;;;;32.07;62.72;100814.50;5099638;27;70101;-40
2021/08/22 04:42:06;;;;;;;6.13;5.53;;;;;;;32.07;62.63;100811.78;5081783;27;66058;-39
2021/08/22 04:44:36;;;;;;;8.00;5.35;;;;;;;32.06;62.92;100805.53;5097655;27;69234;-39
2021/08/22 04:47:06;;;;;;;6.20;4.93;;;;;;;32.09;62.87;100790.69;5101642;27;66723;-40
2021/08/22 04:49:37;;;;;;;4.93;4.47;;;;;;;32.11;62.92;100794.00;5100634;27;70718;-39
2021/08/22 04:52:08;;;;;;;3.40;3.20;;;;;;;32.13;62.35;100783.75;5065028;27;66272;-39
2021/08/22 04:54:38;;;;;;;5.50;3.78;;;;;;;32.09;62.48;100775.22;5080534;27;69908;-40
2021/08/22 04:57:09;;;;;;;4.15;3.33;;;;;;;32.13;62.41;100773.72;5105879;27;66539;-39
2021/08/22 04:59:39;;;;;;;7.10;4.35;;;;;;;32.13;62.60;100775.63;5077418;27;69461;-39
2021/08/22 05:02:09;;;;;;;4.75;4.28;;;;;;;32.18;62.36;100773.00;5098583;27;66200;-39
2021/08/22 05:04:40;;;;;;;5.45;4.97;;;;;;;32.22;62.15;100768.78;5100079;27;69353;-39
2021/08/22 05:07:11;;;;;;;4.82;4.43;;;;;;;32.24;62.11;100762.06;5098200;27;66525;-38
2021/08/22 05:09:41;;;;;;;5.65;5.15;;;;;;;32.25;62.20;100754.75;5098548;27;69378;-39
2021/08/22 05:12:11;;;;;;;9.05;6.70;;;;;;;32.22;62.05;100752.50;5098587;27;66650;-39
2021/08/22 05:14:42;;;;;;;7.70;7.13;;;;;;;32.26;62.11;100751.81;5078074;27;70457;-39
2021/08/22 05:17:13;;;;;;;7.70;7.30;;;;;;;32.29;61.59;100750.53;5079027;27;67053;-39
2021/08/22 05:19:43;;;;;;;9.05;8.38;;;;;;;32.32;61.87;100736.47;5082693;27;70414;-41
2021/08/22 05:22:13;;;;;;;10.90;10.20;;;;;;;32.32;61.66;100732.91;5097415;27;68038;-39
2021/08/22 05:24:44;;;;;;;13.65;12.25;;;;;;;32.33;61.50;100729.97;5096723;27;69141;-40
2021/08/22 05:27:14;;;;;;;15.52;14.07;;;;;;;32.36;61.43;100732.22;5099530;27;64839;-39
2021/08/22 05:29:45;;;;;;;20.83;19.23;;;;;;;32.36;61.69;100720.53;5096647;27;70640;-39
2021/08/22 05:32:15;;;;;;;29.65;26.60;;;;;;;32.36;61.31;100707.78;5096594;27;65327;-39
2021/08/22 05:34:45;;;;;;;42.30;38.10;;;;;;;32.38;61.40;100719.25;5099733;27;69937;-39
2021/08/22 05:37:16;;;;;;;50.83;45.72;;;;;;;32.38;60.91;100708.38;5095953;27;66317;-39
2021/08/22 05:39:48;;;;;;;55.55;49.67;;;;;;;32.38;60.96;100708.38;5082414;27;70075;-38
2021/08/22 05:42:19;;;;;;;69.40;62.15;;;;;;;32.35;60.56;100706.16;5099763;27;66184;-39
2021/08/22 05:44:49;;;;;;;74.72;66.85;;;;;;;32.38;60.45;100708.38;5094073;27;70713;-39
2021/08/22 05:47:20;;;;;;;79.57;71.32;;;;;;;32.40;60.42;100698.13;5100538;27;65626;-38
2021/08/22 05:49:51;;;;;;;86.78;78.22;;;;;;;32.40;60.19;100703.56;5098078;27;70536;-39
2021/08/22 05:52:21;;;;;;;87.53;78.55;;;;;;;32.41;60.19;100702.50;5099250;27;66207;-39
2021/08/22 05:54:54;;;;;;;90.13;80.38;;;;;;;32.43;59.80;100689.50;5099544;27;70676;-40
2021/08/22 05:57:24;;;;;;;99.55;89.35;;;;;;;32.40;59.83;100689.97;5098039;27;65820;-39
2021/08/22 05:59:55;;;;;;;107.68;96.97;;;;;;;32.46;60.08;100678.22;5080408;27;70111;-39
2021/08/22 06:02:25;;;;;;;116.40;104.53;;;;;;;32.46;59.75;100683.63;5098943;27;65558;-39
2021/08/22 06:04:56;;;;;;;121.07;109.10;;;;;;;32.47;59.36;100679.84;5099984;27;70260;-40
2021/08/22 06:07:26;;;;;;;120.45;108.35;;;;;;;32.53;59.29;100677.25;5098705;27;66658;-39
2021/08/22 06:09:58;;;;;;;118.95;107.13;;;;;;;32.53;59.33;100672.66;5086489;27;70142;-40
2021/08/22 06:12:28;;;;;;;;;;;;;;;32.27;59.78;100669.31;5092540;27;66782;-38
2021/08/22 06:14:59;;;;;;;119.97;107.90;;;;;;;32.52;59.19;100659.31;5097738;27;70019;-39
2021/08/22 06:17:29;;;;;;;118.88;107.25;;;;;;;32.56;59.32;100652.34;5103086;27;67062;-38
2021/08/22 06:20:00;;;;;;;114.85;103.35;;;;;;;32.61;59.69;100641.59;5097819;27;70297;-40
2021/08/22 06:22:30;;;;;;;106.22;95.32;;;;;;;32.55;58.00;100631.69;5080601;27;66276;-39
2021/08/22 06:25:02;;;;;;;95.88;86.00;;;;;;;32.44;57.78;100623.28;5063832;27;69928;-39
2021/08/22 06:27:32;;;;;;;87.60;78.43;;;;;;;32.36;56.98;100623.63;5097269;27;65735;-39
2021/08/22 06:30:03;;;;;;;82.82;74.10;;;;;;;32.24;56.41;100603.81;5101076;27;69638;-39
2021/08/22 06:32:34;;;;;;;76.10;68.13;;;;;;;32.22;55.59;100605.94;5098515;27;66766;-39
2021/08/22 06:35:06;;;;;;;75.38;63.05;;;;;;;32.12;54.38;100589.41;5078870;27;70059;-39
2021/08/22 06:37:38;;;;;;;68.35;60.97;;;;;;;32.08;54.13;100593.69;5078960;27;67033;-40
2021/08/22 06:40:09;;;;;;;63.33;55.40;;;;;;;32.01;53.77;100583.78;5098177;27;69626;-40
2021/08/22 06:42:39;;;;;;;56.92;50.70;;;;;;;32.00;52.84;100586.69;5082367;27;66204;-40
2021/08/22 06:45:10;;;;;;;52.45;47.15;;;;;;;31.95;52.17;100581.97;5100676;27;70168;-40
2021/08/22 06:47:41;;;;;;;;;;;;;;;31.63;52.12;100580.63;5098125;27;66638;-40
2021/08/22 06:50:12;;;;;;;49.35;44.15;;;;;;;31.82;51.04;100574.88;5075395;27;69396;-41
2021/08/22 06:52:43;;;;;;;47.40;41.55;;;;;;;31.95;50.96;100573.84;5056672;27;65356;-38
2021/08/22 06:55:13;;;;;;;42.03;37.83;;;;;;;31.94;50.20;100565.94;5091762;27;69426;-39
2021/08/22 06:57:47;;;;;;;38.40;34.90;;;;;;;31.91;49.96;100560.97;5090652;27;65276;-39
2021/08/22 07:00:18;;;;;;;36.22;32.67;;;;;;;31.79;49.08;100542.78;5076636;27;69659;-39
2021/08/22 07:02:48;;;;;;;34.17;31.17;;;;;;;31.75;48.28;100544.31;5091474;27;66017;-39
2021/08/22 07:05:20;;;;;;;31.70;28.92;;;;;;;31.74;48.94;100539.13;5093685;27;70608;-39
2021/08/22 07:07:50;;;;;;;31.88;27.77;;;;;;;31.67;47.76;100531.09;5094393;27;65645;-40
2021/08/22 07:10:22;;;;;;;30.70;27.88;;;;;;;31.64;46.67;100528.03;5091633;27;70699;-40
2021/08/22 07:12:53;;;;;;;28.58;26.00;;;;;;;31.64;47.28;100522.59;5093725;27;65390;-40
2021/08/22 07:15:24;;;;;;;24.83;22.50;;;;;;;31.58;46.49;100514.34;5075603;27;70119;-39
2021/08/22 07:17:57;;;;;;;24.75;22.95;;;;;;;31.63;46.45;100521.78;5096849;27;65393;-39
2021/08/22 07:20:28;;;;;;;23.10;21.25;;;;;;;31.58;45.44;100508.94;5071939;27;70175;-39
2021/08/22 07:22:58;;;;;;;21.25;19.75;;;;;;;31.58;44.94;100506.22;5089565;27;65545;-39
2021/08/22 07:25:29;;;;;;;21.15;19.40;;;;;;;31.63;45.30;100489.25;5089597;27;70237;-39
2021/08/22 07:28:01;;;;;;;19.85;18.45;;;;;;;31.58;45.02;100487.22;5092666;27;66338;-39
2021/08/22 07:30:31;;;;;;;18.42;17.08;;;;;;;31.61;45.40;100486.75;5079421;27;68898;-39
2021/08/22 07:33:04;;;;;;;17.88;16.17;;;;;;;31.57;44.28;100480.16;5099226;27;65147;-39
2021/08/22 07:35:35;;;;;;;16.42;15.63;;;;;;;31.65;44.27;100481.72;5102499;27;70129;-39
2021/08/22 07:38:05;;;;;;;16.98;15.63;;;;;;;31.63;44.16;100467.56;5096092;27;66224;-39
2021/08/22 07:40:37;;;;;;;15.00;14.02;;;;;;;31.60;42.80;100457.19;5096244;27;70036;-38
2021/08/22 07:43:07;;;;;;;14.23;13.35;;;;;;;31.70;44.17;100456.59;5099785;27;65514;-41
2021/08/22 07:45:38;;;;;;;13.10;12.30;;;;;;;31.70;42.70;100454.69;5098708;27;69995;-40
2021/08/22 07:48:09;;;;;;;12.63;12.02;;;;;;;31.74;43.30;100455.06;5099513;27;65688;-39
2021/08/22 07:50:40;;;;;;;11.98;11.38;;;;;;;31.70;43.41;100445.75;5075362;27;69985;-40
2021/08/22 07:53:11;;;;;;;11.07;10.37;;;;;;;31.69;43.21;100442.22;5095460;27;65358;-39
2021/08/22 07:55:42;;;;;;;11.98;11.10;;;;;;;31.73;42.98;100446.13;5093233;27;70140;-39
2021/08/22 07:58:13;;;;;;;10.90;10.35;;;;;;;31.68;42.29;100437.00;5100178;27;66533;-39
2021/08/22 08:00:43;;;;;;;9.82;9.25;;;;;;;31.76;42.80;100433.94;5097617;27;70257;-40
2021/08/22 08:03:14;;;;;;;9.15;8.60;;;;;;;31.81;42.50;100431.34;5097505;27;65572;-39
2021/08/22 08:05:45;;;;;;;9.70;9.20;;;;;;;31.77;41.51;100422.06;5097114;27;70589;-39
2021/08/22 08:08:16;;;;;;;9.43;8.70;;;;;;;31.80;42.09;100416.16;5088837;27;65648;-39
2021/08/22 08:10:46;;;;;;;9.23;8.65;;;;;;;31.82;41.89;100424.88;5080197;27;70001;-40
2021/08/22 08:13:17;;;;;;;8.55;7.95;;;;;;;31.88;42.09;100423.91;5087073;27;66407;-39
2021/08/22 08:15:48;;;;;;;8.27;7.88;;;;;;;31.86;41.72;100417.91;5090637;27;69601;-39
2021/08/22 08:18:19;;;;;;;7.43;6.90;;;;;;;31.86;41.36;100411.66;5067518;27;66291;-39
2021/08/22 08:20:50;;;;;;;7.15;6.70;;;;;;;31.86;41.05;100417.09;5069571;27;69276;-39
2021/08/22 08:23:20;;;;;;;7.10;6.80;;;;;;;31.89;41.00;100420.13;5087178;27;66286;-39
2021/08/22 08:25:52;;;;;;;6.72;6.22;;;;;;;31.93;41.25;100406.94;5071053;27;70263;-38
2021/08/22 08:28:23;;;;;;;6.57;6.10;;;;;;;31.94;41.66;100401.28;5069263;27;65834;-38
2021/08/22 08:30:57;;;;;;;6.85;6.45;;;;;;;31.94;40.97;100382.31;5087083;27;69974;-39
2021/08/22 08:33:28;;;;;;;6.75;6.13;;;;;;;31.98;42.48;100380.78;5093868;27;67350;-39
2021/08/22 08:35:59;;;;;;;8.43;7.72;;;;;;;32.02;45.14;100378.41;5091244;27;70980;-38
2021/08/22 08:38:30;;;;;;;8.03;7.53;;;;;;;32.21;47.10;100376.34;5094316;27;66452;-38
2021/08/22 08:41:05;;;;;;;8.82;8.32;;;;;;;32.40;48.92;100379.66;5092758;27;69400;-39
2021/08/22 08:43:36;;;;;;;9.07;8.48;;;;;;;32.56;49.59;100383.53;5072832;27;66073;-38
2021/08/22 08:46:09;;;;;;;10.45;9.48;;;;;;;32.72;49.62;100380.03;5095672;27;70793;-39
2021/08/22 08:48:59;;;;;;;10.32;9.23;;;;;;;32.85;50.04;100365.31;5096279;27;65502;-39
2021/08/22 08:51:56;;;;;;;10.20;7.75;;;;;;;32.92;50.57;100361.34;5098026;27;69638;-39
2021/08/22 08:54:32;;;;;;;8.38;7.88;;;;;;;33.06;50.59;100355.63;5093339;27;65474;-39
2021/08/22 08:57:03;;;;;;;8.55;7.85;;;;;;;33.15;50.81;100365.00;5097164;27;69995;-39
2021/08/22 08:59:35;;;;;;;8.32;7.63;;;;;;;33.23;51.32;100370.00;5062842;27;65809;-39
2021/08/22 09:02:06;;;;;;;8.38;7.78;;;;;;;33.31;51.10;100364.16;5101038;27;69566;-39
2021/08/22 09:04:48;;;;;;;7.20;6.63;;;;;;;33.24;51.22;100336.34;5079747;27;65615;-38
2021/08/22 09:07:19;;;;;;;;;;;;;;;33.26;52.59;100360.53;5071874;27;69995;-39
2021/08/22 09:10:31;;;;;;;4.28;4.07;;;;;;;33.48;52.29;100349.72;5100160;27;65941;-40
2021/08/22 09:13:22;;;;;;;3.47;3.28;;;;;;;33.65;51.42;100347.78;5046880;27;69571;-39
2021/08/22 09:16:20;;;;;;;3.13;2.93;;;;;;;33.71;51.73;100346.81;5100295;27;66246;-39
2021/08/22 09:19:27;;;;;;;3.10;2.90;;;;;;;33.71;51.31;100344.09;5096500;27;69696;-39
2021/08/22 09:22:25;;;;;;;3.05;2.85;;;;;;;33.88;51.85;100367.66;5095394;27;66500;-39
2021/08/22 09:25:41;;;;;;;5.97;3.05;;;;;;;33.85;52.50;100382.63;5079985;27;70176;-39
2021/08/22 09:29:02;;;;;;;9.00;3.28;;;;;;;33.81;53.16;100392.34;5091289;27;65619;-39
2021/08/22 09:31:57;;;;;;;4.32;3.22;;;;;;;33.95;51.43;100396.34;5057292;27;70825;-39
2021/08/22 09:35:34;;;;;;;7.03;3.70;;;;;;;33.86;51.31;100413.38;5074386;27;66046;-41
2021/08/22 09:38:22;;;;;;;4.00;3.45;;;;;;;33.91;51.63;100411.53;5042419;27;70580;-40
2021/08/22 09:41:02;;;;;;;3.78;3.38;;;;;;;33.93;52.45;100416.72;5077271;27;66100;-40
2021/08/22 09:44:09;;;;;;;3.83;3.53;;;;;;;33.90;51.62;100425.38;5078430;27;69904;-40
2021/08/22 09:46:50;;;;;;;6.32;4.13;;;;;;;33.93;51.49;100430.31;5075330;27;66084;-40
2021/08/22 09:49:43;;;;;;;5.53;5.13;;;;;;;33.91;51.22;100436.03;5095499;27;69854;-39
2021/08/22 09:52:44;;;;;;;5.93;5.40;;;;;;;33.89;51.76;100438.16;5093655;27;65098;-42
2021/08/22 09:55:39;;;;;;;6.80;6.20;;;;;;;33.79;52.38;100436.16;5097438;27;69927;-40
2021/08/22 09:58:30;;;;;;;7.13;6.38;;;;;;;33.81;54.12;100438.59;5079664;27;66571;-41
2021/08/22 10:01:13;;;;;;;7.35;6.75;;;;;;;33.85;54.39;100438.91;5080955;27;69428;-41
2021/08/22 10:04:08;;;;;;;11.43;6.60;;;;;;;33.77;54.35;100438.28;5095672;27;66191;-40
2021/08/22 10:06:52;;;;;;;11.57;5.90;;;;;;;33.79;54.83;100419.81;5046448;27;70124;-40
2021/08/22 10:09:45;;;;;;;7.18;6.22;;;;;;;33.76;56.19;100436.63;5078378;27;66137;-40
2021/08/22 10:12:17;;;;;;;7.30;6.60;;;;;;;33.81;55.76;100436.69;5073976;27;69836;-40
2021/08/22 10:14:48;;;;;;;13.68;7.15;;;;;;;33.77;56.36;100432.84;5099984;27;66134;-39
2021/08/22 10:17:22;;;;;;;9.87;6.80;;;;;;;33.76;56.67;100442.06;5095128;27;70413;-39
2021/08/22 10:19:54;;;;;;;9.38;6.05;;;;;;;33.78;56.46;100431.75;5098822;27;66125;-40
2021/08/22 10:22:30;;;;;;;15.57;6.63;;;;;;;33.75;56.78;100434.16;5096223;27;70234;-39
2021/08/22 10:25:04;;;;;;;7.60;7.03;;;;;;;33.78;56.70;100450.81;5077550;27;66103;-39
2021/08/22 10:27:37;;;;;;;7.07;6.30;;;;;;;33.75;56.71;100445.88;5077009;27;68732;-40
2021/08/22 10:30:21;;;;;;;6.65;6.05;;;;;;;33.75;56.93;100462.19;5098473;27;65802;-40
2021/08/22 10:32:57;;;;;;;7.72;6.13;;;;;;;33.73;57.37;100452.63;5100596;27;69174;-40
2021/08/22 10:35:32;;;;;;;6.20;5.70;;;;;;;33.62;57.45;100435.31;5093864;27;65706;-40
2021/08/22 10:38:23;;;;;;;12.15;5.85;;;;;;;33.65;57.95;100455.75;5075540;27;69095;-40
2021/08/22 10:40:55;;;;;;;6.38;5.78;;;;;;;33.69;57.39;100452.31;5096732;27;66424;-39
2021/08/22 10:43:25;;;;;;;7.47;6.13;;;;;;;33.68;57.38;100466.97;5082147;27;68885;-39
2021/08/22 10:45:56;;;;;;;6.55;5.85;;;;;;;33.67;57.15;100483.56;5095847;27;66100;-40
2021/08/22 10:48:33;;;;;;;6.20;5.70;;;;;;;33.51;57.42;100458.78;5097507;27;68760;-40
2021/08/22 10:51:04;;;;;;;7.53;5.07;;;;;;;33.64;57.60;100490.31;5086633;27;65479;-40
2021/08/22 10:53:37;;;;;;;5.18;4.82;;;;;;;33.58;58.16;100494.84;5085958;27;71012;-39
2021/08/22 10:56:26;;;;;;;6.50;4.72;;;;;;;33.55;58.62;100527.16;5080801;27;66958;-39
2021/08/22 10:59:01;;;;;;;5.75;5.18;;;;;;;33.61;57.93;100563.41;5105440;27;70168;-40
2021/08/22 11:01:39;;;;;;;6.28;4.45;;;;;;;33.54;58.57;100574.44;5096669;27;66495;-40
2021/08/22 11:04:18;;;;;;;4.90;4.25;;;;;;;33.57;58.42;100568.50;5097907;27;70285;-39
2021/08/22 11:06:53;;;;;;;5.55;4.13;;;;;;;33.55;58.63;100565.22;5078193;27;66284;-39
2021/08/22 11:09:38;;;;;;;4.45;4.05;;;;;;;33.47;58.54;100568.31;5074398;27;70064;-40
2021/08/22 11:12:29;;;;;;;4.45;4.03;;;;;;;33.42;58.99;100598.13;5077353;27;67095;-39
2021/08/22 11:15:04;;;;;;;6.32;4.00;;;;;;;33.34;58.85;100572.97;5095487;27;70131;-39
2021/08/22 11:17:34;;;;;;;4.47;4.00;;;;;;;33.48;58.48;100610.75;5072022;27;66414;-39
2021/08/22 11:20:19;;;;;;;5.22;3.88;;;;;;;33.32;58.81;100612.34;5098706;27;70355;-39
2021/08/22 11:22:55;;;;;;;4.40;4.05;;;;;;;33.44;58.38;100639.50;5076877;27;65557;-39
2021/08/22 11:25:28;;;;;;;5.35;3.92;;;;;;;33.40;58.45;100639.16;5077981;27;70020;-39
2021/08/22 11:28:10;;;;;;;4.00;3.42;;;;;;;33.34;59.15;100668.13;5077024;27;66426;-39
2021/08/22 11:30:42;;;;;;;7.43;3.65;;;;;;;33.37;58.77;100700.28;5082172;27;69947;-39
2021/08/22 11:33:15;;;;;;;3.97;3.60;;;;;;;33.40;58.64;100714.47;5080208;27;43260;-39
2021/08/22 11:35:47;;;;;;;4.72;3.97;;;;;;;33.21;58.78;100682.03;5079875;27;70185;-39
2021/08/22 11:38:17;;;;;;;;;;;;;;;33.07;59.87;100713.25;5057650;28;66177;-39
2021/08/22 11:40:48;;;;;;;5.30;4.80;;;;;;;33.28;59.14;100739.78;5092775;27;70460;-39
2021/08/22 11:43:18;;;;;;;4.57;4.22;;;;;;;33.29;59.43;100730.59;5089397;27;67036;-38
2021/08/22 11:45:49;;;;;;;7.40;4.63;;;;;;;33.27;59.37;100705.53;5068390;27;70114;-48
2021/08/22 11:48:21;;;;;;;6.93;5.07;;;;;;;33.24;60.39;100691.56;5086221;27;66669;-42
2021/08/22 11:51:00;;;;;;;4.38;4.03;;;;;;;32.94;60.88;100689.84;5077225;27;70426;-42
2021/08/22 11:53:32;;;;;;;5.07;3.97;;;;;;;32.98;60.98;100739.94;5092434;27;67190;-39
2021/08/22 11:56:02;;;;;;;8.25;4.07;;;;;;;33.04;61.44;100740.91;5093700;27;70387;-39
2021/08/22 11:58:36;;;;;;;4.00;3.70;;;;;;;33.01;61.41;100676.16;5072133;27;66361;-41